Time,TemperatureF,DewpointF,PressureIn,WindDirection,WindDirectionDegrees,WindSpeedMPH,WindSpeedGustMPH,Humidity,HourlyPrecipIn,Conditions,Clouds,dailyrainin,SoftwareType,DateUTC
2013-05-24 00:00:00,39.0,36.0,30.05,North,10,6.0,-999.0,87,-99.99,,,-99.99,,2013-05-24 00:00:00,
2013-05-24 00:21:00,39.0,36.0,30.05,North,10,6.0,-999.0,87,-99.99,,,-99.99,,2013-05-24 00:21:00,
2013-05-24 00:31:00,39.0,36.0,30.05,North,10,6.0,-999.0,87,-99.99,,,-99.99,,2013-05-24 00:31:00,
2013-05-24 00:42:00,39.0,36.0,30.05,North,10,6.0,-999.0,87,-99.99,,,-99.99,,2013-05-24 00:42:00,
2013-05-24 00:52:00,39.0,36.0,30.05,North,10,6.0,-999.0,87,-99.99,,,-99.99,,2013-05-24 00:52:00,
2013-05-24 01:00:00,40.0,36.0,30.06,North,10,5.0,-999.0,85,-99.99,,,-99.99,,2013-05-24 01:00:00,
2013-05-24 01:21:00,40.0,36.0,30.06,North,10,5.0,-999.0,85,-99.99,,,-99.99,,2013-05-24 01:21:00,
2013-05-24 01:31:00,40.0,36.0,30.06,North,10,5.0,-999.0,85,-99.99,,,-99.99,,2013-05-24 01:31:00,
2013-05-24 01:41:00,40.0,36.0,30.06,North,10,5.0,-999.0,85,-99.99,,,-99.99,,2013-05-24 01:41:00,
2013-05-24 01:52:00,40.0,36.0,30.06,North,10,5.0,-999.0,85,-99.99,,,-99.99,,2013-05-24 01:52:00,
2013-05-24 02:00:00,40.0,35.0,30.07,North,350,7.0,-999.0,79,-99.99,,,-99.99,,2013-05-24 02:00:00,
2013-05-24 02:21:00,40.0,35.0,30.07,North,350,7.0,-999.0,79,-99.99,,,-99.99,,2013-05-24 02:21:00,
2013-05-24 02:32:00,40.0,35.0,30.07,North,350,7.0,-999.0,79,-99.99,,,-99.99,,2013-05-24 02:32:00,
2013-05-24 02:41:00,40.0,35.0,30.07,North,350,7.0,-999.0,79,-99.99,,,-99.99,,2013-05-24 02:41:00,
2013-05-24 02:52:00,40.0,35.0,30.07,North,350,7.0,-999.0,79,-99.99,,,-99.99,,2013-05-24 02:52:00,
2013-05-24 03:00:00,41.0,32.0,30.10,North,10,7.0,-999.0,72,-99.99,,,-99.99,,2013-05-24 03:00:00,
2013-05-24 03:21:00,41.0,32.0,30.10,North,10,7.0,-999.0,72,-99.99,,,-99.99,,2013-05-24 03:21:00,
2013-05-24 03:33:00,41.0,32.0,30.10,North,10,7.0,-999.0,72,-99.99,,,-99.99,,2013-05-24 03:33:00,
2013-05-24 03:42:00,41.0,32.0,30.10,North,10,7.0,-999.0,72,-99.99,,,-99.99,,2013-05-24 03:42:00,
2013-05-24 03:52:00,41.0,32.0,30.10,North,10,7.0,-999.0,72,-99.99,,,-99.99,,2013-05-24 03:52:00,
2013-05-24 04:00:00,40.0,30.0,30.11,North,10,7.0,-999.0,69,-99.99,,,-99.99,,2013-05-24 04:00:00,
2013-05-24 04:22:00,40.0,30.0,30.11,North,10,7.0,-999.0,69,-99.99,,,-99.99,,2013-05-24 04:22:00,
2013-05-24 04:32:00,40.0,30.0,30.11,North,10,7.0,-999.0,69,-99.99,,,-99.99,,2013-05-24 04:32:00,
2013-05-24 04:42:00,40.0,30.0,30.11,North,10,7.0,-999.0,69,-99.99,,,-99.99,,2013-05-24 04:42:00,
2013-05-24 04:52:00,40.0,30.0,30.11,North,10,7.0,-999.0,69,-99.99,,,-99.99,,2013-05-24 04:52:00,
2013-05-24 05:00:00,39.0,30.0,30.12,North,360,7.0,-999.0,69,-99.99,,,-99.99,,2013-05-24 05:00:00,
2013-05-24 05:22:00,39.0,30.0,30.12,North,360,7.0,-999.0,69,-99.99,,,-99.99,,2013-05-24 05:22:00,
2013-05-24 05:32:00,39.0,30.0,30.12,North,360,7.0,-999.0,69,-99.99,,,-99.99,,2013-05-24 05:32:00,
2013-05-24 05:42:00,39.0,30.0,30.12,North,360,7.0,-999.0,69,-99.99,,,-99.99,,2013-05-24 05:42:00,
2013-05-24 05:52:00,39.0,30.0,30.12,North,360,7.0,-999.0,69,-99.99,,,-99.99,,2013-05-24 05:52:00,
2013-05-24 06:00:00,39.0,30.0,30.13,North,360,8.0,-999.0,68,-99.99,,,-99.99,,2013-05-24 06:00:00,
2013-05-24 06:21:00,39.0,30.0,30.13,North,360,8.0,-999.0,68,-99.99,,,-99.99,,2013-05-24 06:21:00,
2013-05-24 06:32:00,39.0,30.0,30.13,North,360,8.0,-999.0,68,-99.99,,,-99.99,,2013-05-24 06:32:00,
2013-05-24 06:41:00,39.0,30.0,30.13,North,360,8.0,-999.0,68,-99.99,,,-99.99,,2013-05-24 06:41:00,
2013-05-24 06:52:00,39.0,30.0,30.13,North,360,8.0,-999.0,68,-99.99,,,-99.99,,2013-05-24 06:52:00,
2013-05-24 07:00:00,38.0,28.0,30.14,North,360,7.0,-999.0,67,-99.99,,,-99.99,,2013-05-24 07:00:00,
2013-05-24 07:21:00,38.0,28.0,30.14,North,360,7.0,-999.0,67,-99.99,,,-99.99,,2013-05-24 07:21:00,
2013-05-24 07:31:00,38.0,28.0,30.14,North,360,7.0,-999.0,67,-99.99,,,-99.99,,2013-05-24 07:31:00,
2013-05-24 07:41:00,38.0,28.0,30.14,North,360,7.0,-999.0,67,-99.99,,,-99.99,,2013-05-24 07:41:00,
2013-05-24 07:52:00,38.0,28.0,30.14,North,360,7.0,-999.0,67,-99.99,,,-99.99,,2013-05-24 07:52:00,
2013-05-24 08:00:00,36.0,26.0,30.16,North,360,8.0,-999.0,66,-99.99,,,-99.99,,2013-05-24 08:00:00,
2013-05-24 08:22:00,36.0,26.0,30.16,North,360,8.0,-999.0,66,-99.99,,,-99.99,,2013-05-24 08:22:00,
2013-05-24 08:32:00,36.0,26.0,30.16,North,360,8.0,-999.0,66,-99.99,,,-99.99,,2013-05-24 08:32:00,
2013-05-24 08:41:00,36.0,26.0,30.16,North,360,8.0,-999.0,66,-99.99,,,-99.99,,2013-05-24 08:41:00,
2013-05-24 08:51:00,36.0,26.0,30.16,North,360,8.0,-999.0,66,-99.99,,,-99.99,,2013-05-24 08:51:00,
2013-05-24 09:00:00,36.0,26.0,30.18,North,360,7.0,-999.0,67,-99.99,,,-99.99,,2013-05-24 09:00:00,
2013-05-24 09:21:00,36.0,26.0,30.18,North,360,7.0,-999.0,67,-99.99,,,-99.99,,2013-05-24 09:21:00,
2013-05-24 09:32:00,36.0,26.0,30.18,North,360,7.0,-999.0,67,-99.99,,,-99.99,,2013-05-24 09:32:00,
2013-05-24 09:42:00,36.0,26.0,30.18,North,360,7.0,-999.0,67,-99.99,,,-99.99,,2013-05-24 09:42:00,
2013-05-24 09:52:00,36.0,26.0,30.18,North,360,7.0,-999.0,67,-99.99,,,-99.99,,2013-05-24 09:52:00,
2013-05-24 10:00:00,36.0,26.0,30.20,North,350,6.0,-999.0,67,-99.99,,,-99.99,,2013-05-24 10:00:00,
2013-05-24 10:22:00,36.0,26.0,30.20,North,350,6.0,-999.0,67,-99.99,,,-99.99,,2013-05-24 10:22:00,
2013-05-24 10:32:00,36.0,26.0,30.20,North,350,6.0,-999.0,67,-99.99,,,-99.99,,2013-05-24 10:32:00,
2013-05-24 10:41:00,36.0,26.0,30.20,North,350,6.0,-999.0,67,-99.99,,,-99.99,,2013-05-24 10:41:00,
2013-05-24 10:52:00,36.0,26.0,30.20,North,350,6.0,-999.0,67,-99.99,,,-99.99,,2013-05-24 10:52:00,
2013-05-24 11:00:00,36.0,26.0,30.22,North,360,6.0,-999.0,65,-99.99,,,-99.99,,2013-05-24 11:00:00,
2013-05-24 11:22:00,36.0,26.0,30.22,North,360,6.0,-999.0,65,-99.99,,,-99.99,,2013-05-24 11:22:00,
2013-05-24 11:32:00,36.0,26.0,30.22,North,360,6.0,-999.0,65,-99.99,,,-99.99,,2013-05-24 11:32:00,
2013-05-24 11:41:00,36.0,26.0,30.22,North,360,6.0,-999.0,65,-99.99,,,-99.99,,2013-05-24 11:41:00,
2013-05-24 11:51:00,36.0,26.0,30.22,North,360,6.0,-999.0,65,-99.99,,,-99.99,,2013-05-24 11:51:00,
2013-05-24 12:00:00,37.0,25.0,30.24,North,360,6.0,-999.0,62,-99.99,,,-99.99,,2013-05-24 12:00:00,
2013-05-24 12:21:00,37.0,25.0,30.24,North,360,6.0,-999.0,62,-99.99,,,-99.99,,2013-05-24 12:21:00,
2013-05-24 12:32:00,37.0,25.0,30.24,North,360,6.0,-999.0,62,-99.99,,,-99.99,,2013-05-24 12:32:00,
2013-05-24 12:42:00,37.0,25.0,30.24,North,360,6.0,-999.0,62,-99.99,,,-99.99,,2013-05-24 12:42:00,
2013-05-24 12:51:00,37.0,25.0,30.24,North,360,6.0,-999.0,62,-99.99,,,-99.99,,2013-05-24 12:51:00,
2013-05-24 13:00:00,37.0,27.0,30.26,NE,40,16.0,-999.0,66,-99.99,,,-99.99,,2013-05-24 13:00:00,
2013-05-24 13:21:00,37.0,27.0,30.26,NE,40,16.0,-999.0,66,-99.99,,,-99.99,,2013-05-24 13:21:00,
2013-05-24 13:31:00,37.0,27.0,30.26,NE,40,16.0,-999.0,66,-99.99,,,-99.99,,2013-05-24 13:31:00,
2013-05-24 13:41:00,37.0,27.0,30.26,NE,40,16.0,-999.0,66,-99.99,,,-99.99,,2013-05-24 13:41:00,
2013-05-24 13:52:00,37.0,27.0,30.26,NE,40,16.0,-999.0,66,-99.99,,,-99.99,,2013-05-24 13:52:00,
2013-05-24 14:00:00,39.0,27.0,30.27,NE,40,13.0,-999.0,61,-99.99,,,-99.99,,2013-05-24 14:00:00,
2013-05-24 14:21:00,39.0,27.0,30.27,NE,40,13.0,-999.0,61,-99.99,,,-99.99,,2013-05-24 14:21:00,
2013-05-24 14:31:00,39.0,27.0,30.27,NE,40,13.0,-999.0,61,-99.99,,,-99.99,,2013-05-24 14:31:00,
2013-05-24 14:41:00,39.0,27.0,30.27,NE,40,13.0,-999.0,61,-99.99,,,-99.99,,2013-05-24 14:41:00,
2013-05-24 14:51:00,39.0,27.0,30.27,NE,40,13.0,-999.0,61,-99.99,,,-99.99,,2013-05-24 14:51:00,
2013-05-24 15:00:00,40.0,28.0,30.29,NNE,20,13.0,-999.0,62,-99.99,,,-99.99,,2013-05-24 15:00:00,
2013-05-24 15:21:00,40.0,28.0,30.29,NNE,20,13.0,-999.0,62,-99.99,,,-99.99,,2013-05-24 15:21:00,
2013-05-24 15:32:00,40.0,28.0,30.29,NNE,20,13.0,-999.0,62,-99.99,,,-99.99,,2013-05-24 15:32:00,
2013-05-24 15:42:00,40.0,28.0,30.29,NNE,20,13.0,-999.0,62,-99.99,,,-99.99,,2013-05-24 15:42:00,
2013-05-24 15:52:00,40.0,28.0,30.29,NNE,20,13.0,-999.0,62,-99.99,,,-99.99,,2013-05-24 15:52:00,
2013-05-24 16:00:00,39.0,30.0,30.31,North,360,9.0,-999.0,69,-99.99,,,-99.99,,2013-05-24 16:00:00,
2013-05-24 16:22:00,39.0,30.0,30.31,North,360,9.0,-999.0,69,-99.99,,,-99.99,,2013-05-24 16:22:00,
2013-05-24 16:32:00,39.0,30.0,30.31,North,360,9.0,-999.0,69,-99.99,,,-99.99,,2013-05-24 16:32:00,
2013-05-24 16:41:00,39.0,30.0,30.31,North,360,9.0,-999.0,69,-99.99,,,-99.99,,2013-05-24 16:41:00,
2013-05-24 16:52:00,39.0,30.0,30.31,North,360,9.0,-999.0,69,-99.99,,,-99.99,,2013-05-24 16:52:00,
2013-05-24 17:00:00,39.0,30.0,30.33,North,10,7.0,-999.0,69,-99.99,,,-99.99,,2013-05-24 17:00:00,
2013-05-24 17:22:00,39.0,30.0,30.33,North,10,7.0,-999.0,69,-99.99,,,-99.99,,2013-05-24 17:22:00,
2013-05-24 17:32:00,39.0,30.0,30.33,North,10,7.0,-999.0,69,-99.99,,,-99.99,,2013-05-24 17:32:00,
2013-05-24 17:41:00,39.0,30.0,30.33,North,10,7.0,-999.0,69,-99.99,,,-99.99,,2013-05-24 17:41:00,
2013-05-24 17:51:00,39.0,30.0,30.33,North,10,7.0,-999.0,69,-99.99,,,-99.99,,2013-05-24 17:51:00,
2013-05-24 18:00:00,40.0,29.0,30.35,NE,50,8.0,-999.0,65,-99.99,,,-99.99,,2013-05-24 18:00:00,
2013-05-24 18:21:00,40.0,29.0,30.35,NE,50,8.0,-999.0,65,-99.99,,,-99.99,,2013-05-24 18:21:00,
2013-05-24 18:31:00,40.0,29.0,30.35,NE,50,8.0,-999.0,65,-99.99,,,-99.99,,2013-05-24 18:31:00,
2013-05-24 18:41:00,40.0,29.0,30.35,NE,50,8.0,-999.0,65,-99.99,,,-99.99,,2013-05-24 18:41:00,
2013-05-24 18:51:00,40.0,29.0,30.35,NE,50,8.0,-999.0,65,-99.99,,,-99.99,,2013-05-24 18:51:00,
2013-05-24 19:00:00,41.0,30.0,30.36,SSE,160,6.0,-999.0,64,-99.99,,,-99.99,,2013-05-24 19:00:00,
2013-05-24 19:21:00,41.0,30.0,30.36,SSE,160,6.0,-999.0,64,-99.99,,,-99.99,,2013-05-24 19:21:00,
2013-05-24 19:31:00,41.0,30.0,30.36,SSE,160,6.0,-999.0,64,-99.99,,,-99.99,,2013-05-24 19:31:00,
2013-05-24 19:41:00,41.0,30.0,30.36,SSE,160,6.0,-999.0,64,-99.99,,,-99.99,,2013-05-24 19:41:00,
2013-05-24 19:52:00,41.0,30.0,30.36,SSE,160,6.0,-999.0,64,-99.99,,,-99.99,,2013-05-24 19:52:00,
2013-05-24 21:00:00,40.0,34.0,30.34,WSW,250,10.0,-999.0,78,-99.99,,,-99.99,,2013-05-24 21:00:00,
2013-05-24 21:21:00,40.0,34.0,30.34,WSW,250,10.0,-999.0,78,-99.99,,,-99.99,,2013-05-24 21:21:00,
2013-05-24 21:32:00,40.0,34.0,30.34,WSW,250,10.0,-999.0,78,-99.99,,,-99.99,,2013-05-24 21:32:00,
2013-05-24 21:42:00,40.0,34.0,30.34,WSW,250,10.0,-999.0,78,-99.99,,,-99.99,,2013-05-24 21:42:00,
2013-05-24 21:52:00,40.0,34.0,30.34,WSW,250,10.0,-999.0,78,-99.99,,,-99.99,,2013-05-24 21:52:00,
2013-05-24 22:00:00,41.0,34.0,30.34,SSW,210,6.0,-999.0,73,-99.99,,,-99.99,,2013-05-24 22:00:00,
2013-05-24 22:22:00,41.0,34.0,30.34,SSW,210,6.0,-999.0,73,-99.99,,,-99.99,,2013-05-24 22:22:00,
2013-05-24 22:32:00,41.0,34.0,30.34,SSW,210,6.0,-999.0,73,-99.99,,,-99.99,,2013-05-24 22:32:00,
2013-05-24 22:42:00,41.0,34.0,30.34,SSW,210,6.0,-999.0,73,-99.99,,,-99.99,,2013-05-24 22:42:00,
2013-05-24 22:52:00,41.0,34.0,30.34,SSW,210,6.0,-999.0,73,-99.99,,,-99.99,,2013-05-24 22:52:00,
2013-05-24 23:00:00,43.0,33.0,30.33,SW,220,7.0,-999.0,68,-99.99,,,-99.99,,2013-05-24 23:00:00,
2013-05-24 23:21:00,43.0,33.0,30.33,SW,220,7.0,-999.0,68,-99.99,,,-99.99,,2013-05-24 23:21:00,
2013-05-24 23:32:00,43.0,33.0,30.33,SW,220,7.0,-999.0,68,-99.99,,,-99.99,,2013-05-24 23:32:00,
2013-05-24 23:41:00,43.0,33.0,30.33,SW,220,7.0,-999.0,68,-99.99,,,-99.99,,2013-05-24 23:41:00,
2013-05-24 23:52:00,43.0,33.0,30.33,SW,220,7.0,-999.0,68,-99.99,,,-99.99,,2013-05-24 23:52:00,